Time;durP1;ratioP1;P1;durP2;ratioP2;P2;SDS_P1;SDS_P2;PMS_P1;PMS_P2;Temp;Humidity;BMP_temperature;BMP_pressure;BME280_temperature;BME280_humidity;BME280_pressure;Samples;Min_cycle;Max_cycle;Signal;HPM_P1;HPM_P2
2022/12/21 00:01:23;;;;;;;;;;;;;;;13.05;63.86;102239.75;7403154;19;1525;-65
2022/12/21 00:03:53;;;;;;;;;;;;;;;13.07;63.89;102240.53;7403857;19;1071;-65
2022/12/21 00:06:25;;;;;;;;;;;;;;;13.08;63.84;102249.38;7403821;19;1000;-66
2022/12/21 00:08:54;;;;;;;;;;;;;;;13.09;63.67;102246.66;7401635;19;1850;-67
2022/12/21 00:11:23;;;;;;;;;;;;;;;13.16;63.44;102257.03;7405668;19;1335;-65
2022/12/21 00:13:52;;;;;;;;;;;;;;;13.18;63.56;102263.16;7404002;19;1017;-66
2022/12/21 00:16:22;;;;;;;;;;;;;;;13.16;63.79;102259.69;7403475;19;911;-66
2022/12/21 00:18:50;;;;;;;;;;;;;;;13.14;63.30;102257.94;7403820;19;985;-66
2022/12/21 00:21:20;;;;;;;;;;;;;;;13.10;63.81;102263.44;7400785;19;988;-66
2022/12/21 00:23:53;;;;;;;;;;;;;;;13.10;63.38;102253.69;7403565;19;971;-67
2022/12/21 00:26:22;;;;;;;;;;;;;;;13.15;63.29;102256.19;7401755;19;1404;-67
2022/12/21 00:28:52;;;;;;;;;;;;;;;13.17;63.44;102254.31;7401352;19;1914;-66
2022/12/21 00:31:21;;;;;;;;;;;;;;;13.18;63.35;102249.88;7403701;19;1395;-65
2022/12/21 00:33:50;;;;;;;;;;;;;;;13.15;63.43;102224.31;7403266;19;968;-66
2022/12/21 00:36:19;;;;;;;;;;;;;;;13.12;63.46;102222.63;7402911;19;957;-65
2022/12/21 00:38:51;;;;;;;;;;;;;;;13.07;63.54;102223.72;7402777;19;1047;-67
2022/12/21 00:41:23;;;;;;;;;;;;;;;13.05;63.29;102245.06;7400963;19;1106;-66
2022/12/21 00:43:53;;;;;;;;;;;;;;;13.06;63.51;102240.59;7404961;19;1339;-65
2022/12/21 00:46:22;;;;;;;;;;;;;;;13.10;63.45;102220.97;7402853;19;978;-66
2022/12/21 00:48:51;;;;;;;;;;;;;;;13.13;63.52;102221.72;7400868;19;1842;-67
2022/12/21 00:51:21;;;;;;;;;;;;;;;13.17;63.30;102217.13;7404673;19;1877;-65
2022/12/21 00:53:54;;;;;;;;;;;;;;;13.18;63.42;102237.44;7402180;19;1147;-66
2022/12/21 00:56:22;;;;;;;;;;;;;;;13.16;63.48;102214.53;7402125;19;1036;-66
2022/12/21 00:58:50;;;;;;;;;;;;;;;13.11;63.56;102227.97;7402030;19;984;-65
2022/12/21 01:01:19;;;;;;;;;;;;;;;13.06;63.52;102214.03;7398897;19;1379;-65
2022/12/21 01:03:48;;;;;;;;;;;;;;;13.06;63.73;102211.38;7402271;19;935;-66
2022/12/21 01:06:17;;;;;;;;;;;;;;;13.10;63.78;102208.53;7404019;19;1335;-67
2022/12/21 01:08:45;;;;;;;;;;;;;;;13.11;63.57;102207.63;7400804;19;1858;-66
2022/12/21 01:11:17;;;;;;;;;;;;;;;13.17;63.27;102213.59;7400609;19;960;-67
2022/12/21 01:13:46;;;;;;;;;;;;;;;13.13;63.54;102195.16;7401272;19;968;-66
2022/12/21 01:16:15;;;;;;;;;;;;;;;13.11;63.40;102185.50;7401544;19;1063;-66
2022/12/21 01:18:43;;;;;;;;;;;;;;;13.05;63.61;102176.00;7401520;19;997;-67
2022/12/21 01:21:16;;;;;;;;;;;;;;;13.07;63.43;102170.59;7401388;19;1004;-67
2022/12/21 01:23:44;;;;;;;;;;;;;;;13.12;63.64;102166.84;7401273;19;985;-66
2022/12/21 01:26:13;;;;;;;;;;;;;;;13.15;63.56;102179.16;7401705;19;963;-67
2022/12/21 01:28:43;;;;;;;;;;;;;;;13.14;63.26;102172.09;7400352;19;1865;-67
2022/12/21 01:31:12;;;;;;;;;;;;;;;13.18;62.79;102172.84;7402275;19;923;-67
2022/12/21 01:33:41;;;;;;;;;;;;;;;13.13;63.18;102179.22;7410547;19;1289;-67
2022/12/21 01:36:10;;;;;;;;;;;;;;;13.11;63.56;102157.16;7408705;19;1075;-67
2022/12/21 01:38:39;;;;;;;;;;;;;;;13.05;63.62;102165.38;7408793;19;981;-67
2022/12/21 01:41:08;;;;;;;;;;;;;;;13.04;63.31;102176.91;7409144;19;931;-66
2022/12/21 01:43:47;;;;;;;;;;;;;;;13.10;63.82;102167.84;7407847;19;978;-65
2022/12/21 01:46:19;;;;;;;;;;;;;;;13.08;63.37;102159.06;7408537;19;959;-65
2022/12/21 01:48:50;;;;;;;;;;;;;;;13.17;63.62;102163.13;7406683;19;1849;-67
2022/12/21 01:51:19;;;;;;;;;;;;;;;13.14;62.66;102164.13;7408778;19;989;-66
2022/12/21 01:53:50;;;;;;;;;;;;;;;13.12;63.46;102161.53;7408137;19;988;-66
2022/12/21 01:56:22;;;;;;;;;;;;;;;13.07;63.46;102154.66;7407503;19;992;-67
2022/12/21 01:58:53;;;;;;;;;;;;;;;13.05;63.85;102153.88;7407847;19;998;-67
2022/12/21 02:01:22;;;;;;;;;;;;;;;13.02;63.65;102133.63;7404901;19;1474;-67
2022/12/21 02:03:52;;;;;;;;;;;;;;;13.03;63.47;102134.47;7408250;19;1011;-66
2022/12/21 02:06:23;;;;;;;;;;;;;;;13.05;63.39;102137.94;7405313;19;1375;-67
2022/12/21 02:08:51;;;;;;;;;;;;;;;13.10;63.43;102133.31;7405765;19;1850;-66
2022/12/21 02:11:20;;;;;;;;;;;;;;;13.10;63.10;102125.34;7407528;19;947;-66
2022/12/21 02:13:48;;;;;;;;;;;;;;;13.09;63.35;102134.22;7407610;19;1059;-65
2022/12/21 02:16:25;;;;;;;;;;;;;;;13.07;63.44;102112.19;7405044;19;1371;-65
2022/12/21 02:19:08;;;;;;;;;;;;;;;13.01;63.77;102109.78;7407551;19;1055;-66
2022/12/21 02:21:42;;;;;;;;;;;;;;;13.00;63.31;102114.25;7405023;19;1153;-66
2022/12/21 02:24:25;;;;;;;;;;;;;;;13.03;63.56;102100.84;7407127;19;1012;-67
2022/12/21 02:27:03;;;;;;;;;;;;;;;13.12;63.42;102107.56;7407195;19;1000;-65
2022/12/21 02:29:52;;;;;;;;;;;;;;;13.16;63.36;102108.28;7404477;19;1844;-66
2022/12/21 02:32:30;;;;;;;;;;;;;;;13.19;63.31;102113.47;7404374;19;964;-66
2022/12/21 02:35:01;;;;;;;;;;;;;;;13.13;63.20;102099.53;7406814;19;1042;-65
2022/12/21 02:37:33;;;;;;;;;;;;;;;13.12;63.46;102108.41;7406963;19;1039;-66
2022/12/21 02:40:06;;;;;;;;;;;;;;;13.09;63.34;102108.56;7404498;19;1644;-66
2022/12/21 02:45:23;;;;;;;;;;;;;;;13.07;63.51;102121.03;7406802;19;832;-66
2022/12/21 02:47:58;;;;;;;;;;;;;;;13.12;63.43;102105.75;7407961;19;1856;-67
2022/12/21 02:50:29;;;;;;;;;;;;;;;13.13;63.16;102110.16;7406403;19;1020;-66
2022/12/21 02:53:00;;;;;;;;;;;;;;;13.10;63.10;102112.94;7406616;19;1002;-65
2022/12/21 02:55:29;;;;;;;;;;;;;;;13.09;63.51;102099.69;7406665;19;988;-65
2022/12/21 02:58:12;;;;;;;;;;;;;;;13.06;63.43;102103.34;7406186;19;1071;-66
2022/12/21 03:00:45;;;;;;;;;;;;;;;12.99;63.69;102091.28;7404761;19;1415;-67
2022/12/21 03:06:12;;;;;;;;;;;;;;;13.01;63.45;102085.88;7406308;19;702;-66
2022/12/21 03:08:46;;;;;;;;;;;;;;;13.02;63.35;102075.22;7405029;19;1858;-65
2022/12/21 03:11:14;;;;;;;;;;;;;;;13.07;63.36;102081.19;7405595;19;1001;-65
2022/12/21 03:13:58;;;;;;;;;;;;;;;13.09;62.67;102076.69;7405650;19;996;-65
2022/12/21 03:16:32;;;;;;;;;;;;;;;13.07;63.04;102070.59;7405347;19;1006;-65
2022/12/21 03:19:09;;;;;;;;;;;;;;;13.06;63.10;102068.84;7405506;19;948;-65
2022/12/21 03:21:42;;;;;;;;;;;;;;;13.02;63.23;102072.56;7405447;19;956;-65
2022/12/21 03:24:13;;;;;;;;;;;;;;;12.98;63.36;102068.28;7405159;19;1153;-65
2022/12/21 03:26:45;;;;;;;;;;;;;;;12.97;63.15;102050.66;7405144;19;997;-65
2022/12/21 03:29:16;;;;;;;;;;;;;;;13.01;63.31;102064.63;7403958;19;1842;-66
2022/12/21 03:31:48;;;;;;;;;;;;;;;13.06;63.37;102060.88;7405538;19;998;-66
2022/12/21 03:34:21;;;;;;;;;;;;;;;13.13;63.12;102065.00;7404911;19;1015;-67
2022/12/21 03:36:51;;;;;;;;;;;;;;;13.16;62.85;102063.16;7405331;19;939;-65
2022/12/21 03:39:22;;;;;;;;;;;;;;;13.12;62.98;102071.22;7405262;19;915;-66
2022/12/21 03:41:53;;;;;;;;;;;;;;;13.11;63.01;102056.25;7404662;19;1099;-65
2022/12/21 03:44:25;;;;;;;;;;;;;;;13.06;63.34;102054.69;7405451;19;1006;-65
2022/12/21 03:46:56;;;;;;;;;;;;;;;13.00;63.41;102045.19;7404379;19;992;-66
2022/12/21 03:49:31;;;;;;;;;;;;;;;13.00;63.13;102045.19;7403071;19;1842;-67
2022/12/21 03:52:01;;;;;;;;;;;;;;;13.02;63.30;102042.50;7404349;19;1056;-67
2022/12/21 03:54:34;;;;;;;;;;;;;;;13.01;62.97;102062.88;7404221;19;1015;-66
2022/12/21 03:57:02;;;;;;;;;;;;;;;13.06;63.38;102058.22;7404132;19;1276;-67
2022/12/21 03:59:31;;;;;;;;;;;;;;;12.99;63.45;102043.50;7404397;19;952;-66
2022/12/21 04:02:04;;;;;;;;;;;;;;;12.96;63.08;102048.06;7402483;19;1319;-66
2022/12/21 04:04:38;;;;;;;;;;;;;;;12.96;63.23;102056.88;7404244;19;976;-66
2022/12/21 04:07:08;;;;;;;;;;;;;;;13.06;63.13;102052.03;7403800;19;981;-65
2022/12/21 04:09:39;;;;;;;;;;;;;;;13.09;63.12;102075.81;7402686;19;1905;-66
2022/12/21 04:14:48;;;;;;;;;;;;;;;13.00;63.24;102033.72;7404920;19;757;-67
2022/12/21 04:17:17;;;;;;;;;;;;;;;12.94;63.19;102064.91;7403360;19;1072;-67
2022/12/21 04:20:02;;;;;;;;;;;;;;;12.96;63.15;102048.06;7403336;19;1013;-66
2022/12/21 04:30:34;;;;;;;;;;;;;;;13.12;62.79;102034.03;7403004;19;746;-67
2022/12/21 04:33:02;;;;;;;;;;;;;;;13.17;62.77;102035.63;7402989;19;1071;-65
2022/12/21 04:35:33;;;;;;;;;;;;;;;13.13;62.83;102026.97;7402812;19;997;-65
2022/12/21 04:37:59;;;;;;;;;;;;;;;13.07;62.86;102043.13;7402871;19;981;-65
2022/12/21 04:40:27;;;;;;;;;;;;;;;13.04;63.13;102027.34;7403185;19;948;-65
2022/12/21 04:42:55;;;;;;;;;;;;;;;12.97;62.81;102018.78;7402586;19;1000;-65
2022/12/21 04:45:24;;;;;;;;;;;;;;;12.97;63.08;102031.19;7402644;19;1027;-65
2022/12/21 04:47:54;;;;;;;;;;;;;;;13.00;62.86;102039.03;7402869;19;998;-65
2022/12/21 04:50:22;;;;;;;;;;;;;;;13.03;62.95;102033.56;7401116;19;1842;-65
2022/12/21 04:52:53;;;;;;;;;;;;;;;13.04;63.12;102036.16;7402655;19;999;-65
2022/12/21 04:55:21;;;;;;;;;;;;;;;13.06;62.85;102028.16;7402259;19;939;-65
2022/12/21 04:57:50;;;;;;;;;;;;;;;13.07;62.66;102029.84;7402536;19;1364;-65
2022/12/21 05:00:18;;;;;;;;;;;;;;;13.07;62.75;102011.28;7401752;19;1014;-66
2022/12/21 05:02:47;;;;;;;;;;;;;;;13.05;62.83;102014.00;7400590;19;1987;-66
2022/12/21 05:05:15;;;;;;;;;;;;;;;13.02;62.91;102016.78;7403927;19;1530;-66
2022/12/21 05:07:43;;;;;;;;;;;;;;;12.97;63.33;102007.28;7400470;19;931;-67
2022/12/21 05:10:14;;;;;;;;;;;;;;;12.93;62.62;102002.13;7400534;19;1866;-66
2022/12/21 05:12:43;;;;;;;;;;;;;;;12.93;62.89;101995.94;7398575;19;1079;-67
2022/12/21 05:15:13;;;;;;;;;;;;;;;12.99;62.97;101987.72;7402262;19;1002;-67
2022/12/21 05:17:41;;;;;;;;;;;;;;;12.98;63.08;101993.94;7401523;19;1016;-66
2022/12/21 05:20:10;;;;;;;;;;;;;;;13.03;62.98;101960.09;7401588;19;1019;-66
2022/12/21 05:22:38;;;;;;;;;;;;;;;13.10;62.54;101985.44;7401559;19;1174;-66
2022/12/21 05:25:07;;;;;;;;;;;;;;;13.06;62.86;101970.56;7401980;19;1821;-67
2022/12/21 05:27:38;;;;;;;;;;;;;;;13.02;62.90;102000.84;7401832;19;983;-66
2022/12/21 05:30:07;;;;;;;;;;;;;;;12.97;62.88;101965.69;7400220;19;1855;-67
2022/12/21 05:32:36;;;;;;;;;;;;;;;12.95;63.00;101948.94;7401723;19;1010;-67
2022/12/21 05:35:04;;;;;;;;;;;;;;;12.94;63.25;101950.72;7401494;19;923;-67
2022/12/21 05:37:32;;;;;;;;;;;;;;;12.95;62.94;101959.56;7401555;19;976;-65
2022/12/21 05:40:01;;;;;;;;;;;;;;;13.02;62.70;101976.09;7401102;19;1113;-65
2022/12/21 05:42:29;;;;;;;;;;;;;;;13.04;63.03;101964.47;7399319;19;1425;-65
2022/12/21 05:45:00;;;;;;;;;;;;;;;13.07;62.73;101969.66;7400890;19;1087;-65
2022/12/21 05:47:29;;;;;;;;;;;;;;;13.09;62.71;101970.47;7401214;19;952;-65
2022/12/21 05:49:57;;;;;;;;;;;;;;;13.07;62.93;101961.69;7399482;19;1846;-65
2022/12/21 05:52:25;;;;;;;;;;;;;;;13.00;62.87;101946.94;7400793;19;937;-66
2022/12/21 05:54:53;;;;;;;;;;;;;;;13.00;62.98;101967.34;7400863;19;1582;-66
2022/12/21 05:57:22;;;;;;;;;;;;;;;12.94;63.09;101971.97;7398759;19;960;-65
2022/12/21 05:59:50;;;;;;;;;;;;;;;12.92;62.55;101967.66;7400404;19;1001;-65
2022/12/21 06:02:21;;;;;;;;;;;;;;;13.03;62.97;101965.41;7398822;19;1423;-65
2022/12/21 06:04:49;;;;;;;;;;;;;;;12.98;62.81;101963.88;7400677;19;1006;-65
2022/12/21 06:07:17;;;;;;;;;;;;;;;13.03;62.84;101964.53;7400378;19;1005;-65
2022/12/21 06:09:46;;;;;;;;;;;;;;;13.06;62.56;101951.13;7399062;19;1863;-65
2022/12/21 06:12:14;;;;;;;;;;;;;;;13.08;62.71;101952.78;7400526;19;994;-65
2022/12/21 06:14:43;;;;;;;;;;;;;;;13.08;62.78;101951.94;7400087;19;996;-65
2022/12/21 06:17:11;;;;;;;;;;;;;;;13.04;62.79;101956.50;7400955;19;960;-65
2022/12/21 06:19:42;;;;;;;;;;;;;;;13.05;63.06;101955.59;7407522;19;933;-66
2022/12/21 06:22:10;;;;;;;;;;;;;;;12.96;62.76;101947.16;7407825;19;1006;-66
2022/12/21 06:24:39;;;;;;;;;;;;;;;12.93;63.06;101954.34;7407273;19;997;-66
2022/12/21 06:27:07;;;;;;;;;;;;;;;12.97;62.41;101962.16;7407264;19;1008;-66
2022/12/21 06:29:35;;;;;;;;;;;;;;;12.98;62.70;101962.09;7405819;19;1870;-66
2022/12/21 06:32:04;;;;;;;;;;;;;;;13.02;62.63;101979.63;7407119;19;1071;-65
2022/12/21 06:34:32;;;;;;;;;;;;;;;13.02;62.78;101963.69;7407295;19;1002;-65
2022/12/21 06:37:03;;;;;;;;;;;;;;;13.05;62.49;101963.56;7406923;19;1071;-66
2022/12/21 06:39:31;;;;;;;;;;;;;;;13.04;62.60;101982.22;7406732;19;1055;-65
2022/12/21 06:42:00;;;;;;;;;;;;;;;12.99;62.63;101982.41;7407175;19;1015;-66
2022/12/21 06:44:28;;;;;;;;;;;;;;;12.95;62.89;101980.78;7406623;19;1052;-65
2022/12/21 06:46:57;;;;;;;;;;;;;;;12.96;62.97;101981.69;7406523;19;1087;-67
2022/12/21 06:49:25;;;;;;;;;;;;;;;12.96;62.83;101966.59;7406005;19;1860;-67
2022/12/21 06:51:53;;;;;;;;;;;;;;;12.98;62.88;101969.19;7406392;19;1087;-67
2022/12/21 06:54:24;;;;;;;;;;;;;;;13.01;62.54;101975.25;7406210;19;993;-66
2022/12/21 06:56:53;;;;;;;;;;;;;;;13.03;62.66;101949.50;7406291;19;940;-66
2022/12/21 06:59:21;;;;;;;;;;;;;;;13.04;62.61;101971.59;7406439;19;999;-67
2022/12/21 07:01:49;;;;;;;;;;;;;;;13.08;62.22;101973.19;7404408;19;1315;-66
2022/12/21 07:04:17;;;;;;;;;;;;;;;13.06;62.74;101970.56;7406326;19;1012;-66
2022/12/21 07:06:46;;;;;;;;;;;;;;;13.02;62.62;101971.66;7406257;19;1054;-66
2022/12/21 07:09:14;;;;;;;;;;;;;;;12.96;62.84;101973.72;7405889;19;1864;-67
2022/12/21 07:11:46;;;;;;;;;;;;;;;12.93;62.81;101969.38;7405657;19;966;-67
2022/12/21 07:14:14;;;;;;;;;;;;;;;12.92;62.67;101980.94;7405725;19;1221;-66
2022/12/21 07:16:43;;;;;;;;;;;;;;;12.95;63.06;101978.13;7405916;19;1011;-66
2022/12/21 07:19:11;;;;;;;;;;;;;;;12.92;63.03;101968.53;7405451;19;1071;-67
2022/12/21 07:21:39;;;;;;;;;;;;;;;13.02;62.83;101992.88;7403521;19;1490;-66
2022/12/21 07:24:09;;;;;;;;;;;;;;;13.06;62.67;101967.06;7405258;19;992;-67
2022/12/21 07:26:37;;;;;;;;;;;;;;;13.03;62.61;101976.03;7405336;19;1020;-67
2022/12/21 07:29:08;;;;;;;;;;;;;;;12.99;62.00;101978.88;7403575;19;1854;-67
2022/12/21 07:31:36;;;;;;;;;;;;;;;12.92;62.84;101963.22;7405554;19;1095;-66
2022/12/21 07:34:05;;;;;;;;;;;;;;;12.91;62.97;101968.59;7405002;19;1920;-67
2022/12/21 07:36:33;;;;;;;;;;;;;;;12.87;62.85;101973.19;7404851;19;1067;-66
2022/12/21 07:39:01;;;;;;;;;;;;;;;12.91;62.74;101965.94;7404846;19;1063;-66
2022/12/21 07:41:30;;;;;;;;;;;;;;;12.97;62.67;101964.81;7404746;19;1016;-67
2022/12/21 07:43:58;;;;;;;;;;;;;;;12.97;62.80;101949.75;7404643;19;1001;-66
2022/12/21 07:46:29;;;;;;;;;;;;;;;13.02;62.55;101971.66;7405050;19;1039;-66
2022/12/21 07:48:57;;;;;;;;;;;;;;;13.04;62.57;101967.13;7404882;19;964;-66
2022/12/21 07:51:25;;;;;;;;;;;;;;;13.03;62.51;101952.16;7402264;19;1862;-67
2022/12/21 07:53:54;;;;;;;;;;;;;;;13.02;62.37;101949.56;7404683;19;1013;-66
2022/12/21 07:56:22;;;;;;;;;;;;;;;12.96;61.85;101950.69;7404680;19;972;-66
2022/12/21 07:58:51;;;;;;;;;;;;;;;12.98;62.65;101948.81;7404532;19;959;-67
2022/12/21 08:01:20;;;;;;;;;;;;;;;12.96;62.90;101929.44;7402887;19;1369;-66
2022/12/21 08:03:51;;;;;;;;;;;;;;;13.01;62.40;101937.19;7403938;19;981;-67
2022/12/21 08:06:19;;;;;;;;;;;;;;;12.99;61.85;101939.94;7403825;19;1039;-67
2022/12/21 08:08:48;;;;;;;;;;;;;;;12.98;62.49;101950.63;7403867;19;1028;-67
2022/12/21 08:11:17;;;;;;;;;;;;;;;12.92;63.05;101933.16;7401915;19;1846;-67
2022/12/21 08:13:46;;;;;;;;;;;;;;;12.88;62.83;101935.06;7403717;19;1016;-67
2022/12/21 08:16:15;;;;;;;;;;;;;;;12.81;63.27;101936.28;7404044;19;944;-66
2022/12/21 08:18:44;;;;;;;;;;;;;;;12.86;63.14;101928.13;7403836;19;995;-66
2022/12/21 08:21:15;;;;;;;;;;;;;;;12.88;63.07;101918.28;7403433;19;1004;-65
2022/12/21 08:23:43;;;;;;;;;;;;;;;12.90;62.63;101925.25;7403633;19;931;-65
2022/12/21 08:26:13;;;;;;;;;;;;;;;12.93;62.85;101922.47;7403348;19;988;-66
2022/12/21 08:28:42;;;;;;;;;;;;;;;12.86;62.40;101915.69;7403154;19;1071;-66
2022/12/21 08:31:11;;;;;;;;;;;;;;;12.84;62.72;101919.34;7401722;19;1857;-66
2022/12/21 08:33:41;;;;;;;;;;;;;;;12.89;62.88;101914.69;7403105;19;929;-65
2022/12/21 08:36:11;;;;;;;;;;;;;;;12.91;62.90;101918.13;7403326;19;944;-66
2022/12/21 08:38:42;;;;;;;;;;;;;;;12.96;62.52;101916.16;7402927;19;977;-66
2022/12/21 08:41:10;;;;;;;;;;;;;;;12.99;62.07;101910.72;7400563;19;1058;-66
2022/12/21 08:43:39;;;;;;;;;;;;;;;12.99;62.51;101909.84;7402794;19;937;-66
2022/12/21 08:46:08;;;;;;;;;;;;;;;13.04;62.32;101916.69;7403105;19;992;-65
2022/12/21 08:48:37;;;;;;;;;;;;;;;13.02;62.50;101917.69;7402853;19;1030;-65
2022/12/21 08:51:07;;;;;;;;;;;;;;;12.94;62.59;101915.38;7401161;19;1847;-65
2022/12/21 08:53:35;;;;;;;;;;;;;;;12.89;62.98;101915.56;7402216;19;953;-65
2022/12/21 08:56:07;;;;;;;;;;;;;;;12.88;62.79;101903.22;7402770;19;1003;-65
2022/12/21 08:58:36;;;;;;;;;;;;;;;12.94;62.67;101902.94;7402641;19;936;-65
2022/12/21 09:01:04;;;;;;;;;;;;;;;13.01;62.46;101902.66;7401454;19;1442;-65
2022/12/21 09:03:32;;;;;;;;;;;;;;;13.03;62.63;101901.69;7401916;19;1059;-66
2022/12/21 09:06:02;;;;;;;;;;;;;;;13.03;62.67;101885.75;7402465;19;968;-67
2022/12/21 09:08:31;;;;;;;;;;;;;;;13.04;62.27;101882.16;7402442;19;995;-65
2022/12/21 09:11:02;;;;;;;;;;;;;;;13.00;62.49;101877.91;7400763;19;1854;-66
2022/12/21 09:13:33;;;;;;;;;;;;;;;12.91;62.45;101875.66;7401842;19;1000;-66
2022/12/21 09:16:02;;;;;;;;;;;;;;;12.87;62.78;101868.78;7402107;19;990;-65
2022/12/21 09:18:31;;;;;;;;;;;;;;;12.87;62.68;101863.47;7401902;19;943;-66
2022/12/21 09:21:02;;;;;;;;;;;;;;;12.88;62.67;101850.13;7402078;19;1011;-66
2022/12/21 09:23:30;;;;;;;;;;;;;;;12.93;62.53;101864.06;7401445;19;1047;-66
2022/12/21 09:25:59;;;;;;;;;;;;;;;12.99;62.49;101862.94;7401490;19;992;-66
2022/12/21 09:28:27;;;;;;;;;;;;;;;13.03;62.45;101859.19;7401819;19;998;-66
2022/12/21 09:30:58;;;;;;;;;;;;;;;13.07;62.20;101859.91;7400633;19;1857;-65
2022/12/21 09:33:26;;;;;;;;;;;;;;;12.99;62.31;101862.94;7399038;19;1469;-65
2022/12/21 09:35:55;;;;;;;;;;;;;;;12.91;62.56;101852.66;7401088;19;985;-65
2022/12/21 09:38:23;;;;;;;;;;;;;;;12.88;62.17;101858.09;7401130;19;957;-66
2022/12/21 09:40:53;;;;;;;;;;;;;;;12.86;62.84;101840.50;7401145;19;1059;-65
2022/12/21 09:43:27;;;;;;;;;;;;;;;12.89;62.64;101850.97;7400894;19;1207;-66
2022/12/21 09:46:04;;;;;;;;;;;;;;;12.94;62.83;101846.34;7399451;19;1478;-66
2022/12/21 09:48:33;;;;;;;;;;;;;;;12.99;62.47;101831.06;7401148;19;976;-65
2022/12/21 09:51:03;;;;;;;;;;;;;;;13.05;62.30;101828.13;7399798;19;1872;-65
2022/12/21 09:53:36;;;;;;;;;;;;;;;13.01;62.24;101836.28;7405602;19;933;-65
2022/12/21 09:56:04;;;;;;;;;;;;;;;12.97;62.49;101830.28;7408367;19;1071;-66
2022/12/21 09:58:36;;;;;;;;;;;;;;;12.94;62.71;101825.94;7408249;19;1064;-65
2022/12/21 10:01:10;;;;;;;;;;;;;;;12.91;62.56;101827.88;7406778;19;1438;-65
2022/12/21 10:03:44;;;;;;;;;;;;;;;12.96;62.53;101820.56;7408552;19;1006;-65
2022/12/21 10:06:19;;;;;;;;;;;;;;;13.02;62.17;101819.44;7410245;19;1398;-66
2022/12/21 10:08:54;;;;;;;;;;;;;;;13.05;62.29;101824.59;7408345;19;1010;-66
2022/12/21 10:11:31;;;;;;;;;;;;;;;13.04;62.29;101806.94;7406358;19;1853;-67
2022/12/21 10:14:05;;;;;;;;;;;;;;;13.05;62.43;101800.69;7408094;19;1485;-65
2022/12/21 10:16:43;;;;;;;;;;;;;;;12.99;62.35;101800.97;7407638;19;985;-65
2022/12/21 10:19:18;;;;;;;;;;;;;;;12.90;62.58;101799.63;7407989;19;928;-66
2022/12/21 10:21:50;;;;;;;;;;;;;;;12.87;62.87;101797.09;7407544;19;1048;-65
2022/12/21 10:24:23;;;;;;;;;;;;;;;12.88;62.68;101802.34;7407315;19;1079;-66
2022/12/21 10:26:53;;;;;;;;;;;;;;;12.96;62.42;101802.00;7407793;19;908;-66
2022/12/21 10:29:24;;;;;;;;;;;;;;;12.99;62.46;101793.91;7407187;19;1036;-66
2022/12/21 10:31:57;;;;;;;;;;;;;;;13.02;62.62;101788.44;7404959;19;1858;-67
2022/12/21 10:34:26;;;;;;;;;;;;;;;13.03;62.38;101783.97;7404291;19;1396;-66
2022/12/21 10:36:57;;;;;;;;;;;;;;;12.99;62.47;101793.91;7407010;19;952;-66
2022/12/21 10:39:25;;;;;;;;;;;;;;;12.88;62.57;101783.75;7407306;19;1158;-66
2022/12/21 10:41:58;;;;;;;;;;;;;;;12.86;62.87;101771.50;7406661;19;1320;-66
2022/12/21 10:44:27;;;;;;;;;;;;;;;12.88;62.98;101777.59;7407167;19;1010;-66
2022/12/21 10:46:59;;;;;;;;;;;;;;;12.93;62.56;101775.56;7407017;19;964;-66
2022/12/21 10:49:29;;;;;;;;;;;;;;;12.96;62.59;101767.47;7406939;19;1164;-67
2022/12/21 10:51:58;;;;;;;;;;;;;;;12.97;62.45;101769.22;7404355;19;1846;-66
2022/12/21 10:54:27;;;;;;;;;;;;;;;12.99;62.23;101771.78;7404066;19;1384;-66
2022/12/21 10:56:57;;;;;;;;;;;;;;;12.96;62.45;101769.28;7403741;19;1395;-66
2022/12/21 10:59:26;;;;;;;;;;;;;;;12.90;62.67;101773.06;7406277;19;1059;-66
2022/12/21 11:01:55;;;;;;;;;;;;;;;12.88;62.68;101761.66;7407976;19;1378;-66
2022/12/21 11:04:35;;;;;;;;;;;;;;;12.92;62.40;101755.28;7404364;19;927;-66
2022/12/21 11:07:05;;;;;;;;;;;;;;;12.96;62.32;101762.16;7403330;19;1490;-65
2022/12/21 11:09:42;;;;;;;;;;;;;;;13.02;62.32;101730.00;7405918;19;947;-66
2022/12/21 11:12:20;;;;;;;;;;;;;;;13.04;62.33;101754.69;7404175;19;1866;-66
2022/12/21 11:14:49;;;;;;;;;;;;;;;13.00;61.99;101745.16;7406154;19;1065;-66
2022/12/21 11:17:21;;;;;;;;;;;;;;;12.92;62.52;101745.50;7405758;19;932;-65
2022/12/21 11:19:53;;;;;;;;;;;;;;;12.87;62.63;101746.66;7408769;19;1375;-65
2022/12/21 11:22:27;;;;;;;;;;;;;;;12.88;62.65;101732.47;7405597;19;960;-66
2022/12/21 11:24:56;;;;;;;;;;;;;;;12.91;62.55;101737.63;7403334;19;1475;-66
2022/12/21 11:27:27;;;;;;;;;;;;;;;12.92;62.45;101726.94;7405316;19;977;-67
2022/12/21 11:29:57;;;;;;;;;;;;;;;12.97;62.42;101720.53;7405528;19;994;-66
2022/12/21 11:32:26;;;;;;;;;;;;;;;13.04;62.25;101714.03;7403025;19;1849;-67
2022/12/21 11:34:57;;;;;;;;;;;;;;;13.00;62.57;101715.94;7405472;19;1019;-66
2022/12/21 11:37:31;;;;;;;;;;;;;;;12.98;62.48;101731.09;7404991;19;961;-67
2022/12/21 11:40:00;;;;;;;;;;;;;;;12.89;62.35;101715.59;7405324;19;979;-67
2022/12/21 11:42:28;;;;;;;;;;;;;;;12.90;62.42;101701.41;7405205;19;989;-65
2022/12/21 11:45:09;;;;;;;;;;;;;;;12.94;62.53;101700.31;7404710;19;965;-66
2022/12/21 11:47:44;;;;;;;;;;;;;;;13.01;62.42;101701.75;7404958;19;993;-67
2022/12/21 11:50:23;;;;;;;;;;;;;;;12.99;62.33;101695.66;7404982;19;990;-67
2022/12/21 11:52:58;;;;;;;;;;;;;;;12.94;62.48;101679.94;7404937;19;926;-67
2022/12/21 11:55:30;;;;;;;;;;;;;;;12.94;62.64;101692.34;7404305;19;956;-67
2022/12/21 11:58:05;;;;;;;;;;;;;;;12.92;62.49;101680.94;7404738;19;1062;-67
2022/12/21 12:00:39;;;;;;;;;;;;;;;12.88;62.56;101666.94;7403680;19;1068;-66
2022/12/21 12:03:19;;;;;;;;;;;;;;;12.85;62.73;101669.78;7402496;19;1528;-66
2022/12/21 12:05:55;;;;;;;;;;;;;;;12.91;62.57;101665.94;7403875;19;973;-66
2022/12/21 12:08:30;;;;;;;;;;;;;;;12.99;62.39;101665.56;7404381;19;925;-65
2022/12/21 12:11:11;;;;;;;;;;;;;;;13.02;62.27;101665.44;7403765;19;1855;-67
2022/12/21 12:13:54;;;;;;;;;;;;;;;12.97;62.37;101655.06;7404180;19;968;-66
2022/12/21 12:16:27;;;;;;;;;;;;;;;12.92;62.24;101633.16;7402640;19;1146;-66
2022/12/21 12:19:01;;;;;;;;;;;;;;;12.90;62.47;101664.22;7403523;19;1048;-67
2022/12/21 12:21:43;;;;;;;;;;;;;;;12.88;62.43;101643.06;7403909;19;927;-66
2022/12/21 12:24:32;;;;;;;;;;;;;;;12.91;62.79;101645.59;7403802;19;932;-66
2022/12/21 12:27:06;;;;;;;;;;;;;;;12.93;62.57;101661.41;7401504;19;1133;-66
2022/12/21 12:29:48;;;;;;;;;;;;;;;12.91;62.39;101652.66;7401249;19;1473;-65
2022/12/21 12:32:23;;;;;;;;;;;;;;;12.83;62.63;101646.88;7401813;19;1857;-65
2022/12/21 12:35:09;;;;;;;;;;;;;;;12.77;62.72;101658.63;7403566;19;993;-65
2022/12/21 12:37:49;;;;;;;;;;;;;;;12.97;62.49;101647.09;7402952;19;992;-65
2022/12/21 12:40:25;;;;;;;;;;;;;;;13.04;62.37;101656.44;7402931;19;961;-65
2022/12/21 12:42:54;;;;;;;;;;;;;;;13.01;62.28;101646.00;7403114;19;1010;-65
2022/12/21 12:45:30;;;;;;;;;;;;;;;12.94;62.17;101645.41;7403214;19;1013;-65
2022/12/21 12:48:04;;;;;;;;;;;;;;;12.85;62.54;101658.28;7402649;19;1004;-65
2022/12/21 12:50:37;;;;;;;;;;;;;;;12.82;62.80;101653.97;7402651;19;936;-65
2022/12/21 12:53:30;;;;;;;;;;;;;;;12.87;62.83;101648.44;7401183;19;1853;-66
2022/12/21 12:56:04;;;;;;;;;;;;;;;12.90;62.51;101653.63;7401557;19;976;-65
2022/12/21 12:58:35;;;;;;;;;;;;;;;12.88;61.83;101652.81;7402440;19;1055;-65
2022/12/21 13:01:06;;;;;;;;;;;;;;;12.82;62.71;101642.50;7401581;19;1451;-66
2022/12/21 13:03:44;;;;;;;;;;;;;;;12.77;62.38;101652.47;7400360;19;1106;-66
2022/12/21 13:06:21;;;;;;;;;;;;;;;12.82;62.83;101646.00;7402462;19;971;-66
2022/12/21 13:08:56;;;;;;;;;;;;;;;12.88;62.66;101643.06;7402109;19;936;-66
2022/12/21 13:11:32;;;;;;;;;;;;;;;12.94;62.35;101637.44;7401314;19;1866;-66
2022/12/21 13:14:05;;;;;;;;;;;;;;;12.97;62.48;101639.13;7401857;19;976;-66
2022/12/21 13:16:39;;;;;;;;;;;;;;;12.88;62.19;101624.47;7402128;19;1047;-65
2022/12/21 13:19:09;;;;;;;;;;;;;;;12.89;62.35;101618.25;7402016;19;1004;-65
2022/12/21 13:21:41;;;;;;;;;;;;;;;12.87;62.55;101635.16;7401646;19;996;-65
2022/12/21 13:24:14;;;;;;;;;;;;;;;12.89;62.50;101623.56;7402272;19;1002;-65
2022/12/21 13:26:46;;;;;;;;;;;;;;;12.89;62.34;101635.94;7399613;19;1084;-65